Time;durP1;ratioP1;P1;durP2;ratioP2;P2;SDS_P1;SDS_P2;PMS_P1;PMS_P2;Temp;Humidity;BMP_temperature;BMP_pressure;BME280_temperature;BME280_humidity;BME280_pressure;Samples;Min_cycle;Max_cycle;Signal;HPM_P1;HPM_P2
2022/03/13 00:01:50;;;;;;;15.75;11.68;;;;;;;1.94;73.14;100836.84;4992625;28;20129;-65
2022/03/13 00:04:56;;;;;;;17.70;11.45;;;;;;;1.78;74.25;100827.59;4992708;28;20045;-65
2022/03/13 00:08:00;;;;;;;16.48;11.15;;;;;;;1.73;74.42;100831.97;4992631;28;20526;-65
2022/03/13 00:11:14;;;;;;;25.55;11.80;;;;;;;1.70;74.18;100832.00;4980754;28;20044;-65
2022/03/13 00:14:19;;;;;;;15.32;11.52;;;;;;;1.67;74.38;100838.03;4992602;28;20049;-65
2022/03/13 00:17:27;;;;;;;16.67;11.80;;;;;;;1.73;74.21;100826.81;4992381;28;20085;-65
2022/03/13 00:20:32;;;;;;;11.80;9.57;;;;;;;1.66;74.10;100830.28;4980184;28;20114;-65
2022/03/13 00:23:35;;;;;;;16.00;10.63;;;;;;;1.79;73.98;100821.59;4992366;28;20044;-65
2022/03/13 00:26:38;;;;;;;;;;;;;;;1.61;74.36;100823.47;4992839;28;20125;-65
2022/03/13 00:29:42;;;;;;;15.80;11.23;;;;;;;1.54;74.73;100819.25;4992383;28;19920;-65
2022/03/13 00:32:46;;;;;;;23.45;12.05;;;;;;;1.69;74.10;100814.78;4992032;28;20514;-65
2022/03/13 00:35:49;;;;;;;16.35;11.70;;;;;;;1.76;73.54;100821.63;4992187;28;20217;-65
2022/03/13 00:38:52;;;;;;;15.57;10.70;;;;;;;1.59;73.78;100824.34;4992245;28;20068;-65
2022/03/13 00:41:55;;;;;;;15.68;9.13;;;;;;;1.58;74.10;100823.50;4992055;28;20515;-65
2022/03/13 00:44:59;;;;;;;15.98;11.52;;;;;;;1.61;73.82;100823.47;4992563;28;20104;-65
2022/03/13 00:48:02;;;;;;;;;;;;;;;1.63;73.58;100816.59;4980363;28;20077;-65
2022/03/13 00:51:06;;;;;;;16.10;10.57;;;;;;;1.73;73.30;100816.50;4992016;28;19928;-65
2022/03/13 00:54:09;;;;;;;14.32;10.50;;;;;;;1.72;72.76;100817.34;4992157;28;20064;-65
2022/03/13 00:57:13;;;;;;;15.73;10.75;;;;;;;1.66;73.34;100809.69;4991839;28;20462;-65
2022/03/13 01:00:16;;;;;;;16.85;11.93;;;;;;;1.65;73.00;100805.41;4991988;28;20511;-65
2022/03/13 01:03:52;;;;;;;16.10;11.15;;;;;;;1.73;72.83;100812.19;4992107;28;20228;-65
2022/03/13 01:06:55;;;;;;;18.55;11.77;;;;;;;1.63;72.78;100810.59;4977575;28;20161;-65
2022/03/13 01:09:58;;;;;;;14.70;11.32;;;;;;;1.37;74.16;100814.28;4991984;28;20040;-65
2022/03/13 01:13:02;;;;;;;;;;;;;;;1.31;74.47;100810.91;4992199;28;20511;-65
2022/03/13 01:16:15;;;;;;;15.15;10.85;;;;;;;1.38;74.07;100812.56;4987438;28;20287;-65
2022/03/13 01:19:18;;;;;;;14.70;9.68;;;;;;;1.56;73.86;100803.78;4992095;28;20104;-65
2022/03/13 01:22:21;;;;;;;15.57;11.05;;;;;;;1.63;73.15;100805.44;4991933;28;20527;-65
2022/03/13 01:25:24;;;;;;;15.82;10.63;;;;;;;1.39;74.30;100803.94;4992111;28;20133;-65
2022/03/13 01:28:29;;;;;;;17.65;11.30;;;;;;;1.27;74.79;100802.34;4991837;28;20105;-65
2022/03/13 01:31:35;;;;;;;15.85;11.38;;;;;;;1.40;74.23;100803.06;4991787;28;20042;-65
2022/03/13 01:34:48;;;;;;;19.00;11.73;;;;;;;1.52;73.68;100802.94;4991596;28;20427;-65
2022/03/13 01:37:53;;;;;;;15.77;11.10;;;;;;;1.43;73.72;100800.47;4991599;28;20265;-65
2022/03/13 01:40:56;;;;;;;15.65;11.18;;;;;;;1.25;74.04;100798.94;4991870;28;20715;-65
2022/03/13 01:44:00;;;;;;;16.50;11.45;;;;;;;1.22;74.08;100800.69;4992130;28;20554;-65
2022/03/13 01:47:05;;;;;;;13.65;10.30;;;;;;;1.29;73.94;100794.63;4995225;28;20073;-65
2022/03/13 01:50:09;;;;;;;14.00;11.23;;;;;;;1.12;74.54;100787.91;4994981;28;20118;-66
2022/03/13 01:53:14;;;;;;;13.30;10.15;;;;;;;1.20;74.21;100786.97;4995432;28;20466;-65
2022/03/13 01:56:18;;;;;;;15.90;11.15;;;;;;;1.20;74.15;100794.69;4995133;28;20050;-65
2022/03/13 01:59:21;;;;;;;13.63;9.95;;;;;;;1.35;73.34;100786.81;4994976;28;20113;-65
2022/03/13 02:02:28;;;;;;;14.68;10.65;;;;;;;1.24;73.40;100781.75;4994799;28;20048;-65
2022/03/13 02:05:35;;;;;;;15.88;11.68;;;;;;;1.14;73.71;100781.00;4995003;28;20057;-65
2022/03/13 02:08:39;;;;;;;17.92;13.05;;;;;;;1.09;73.97;100789.66;4994746;28;20048;-65
2022/03/13 02:11:42;;;;;;;15.68;11.15;;;;;;;1.09;74.09;100777.63;4994833;28;20125;-65
2022/03/13 02:14:48;;;;;;;17.23;11.00;;;;;;;0.95;74.40;100773.47;4994513;28;20076;-65
2022/03/13 02:17:51;;;;;;;16.38;10.65;;;;;;;1.15;73.22;100776.72;4994699;28;20046;-65
2022/03/13 02:20:55;;;;;;;15.43;11.23;;;;;;;1.06;73.12;100769.09;4994500;28;20057;-65
2022/03/13 02:24:07;;;;;;;14.00;9.98;;;;;;;1.17;73.14;100772.41;4994511;28;20061;-65
2022/03/13 02:27:10;;;;;;;13.25;10.57;;;;;;;0.99;73.62;100765.72;4994560;28;20176;-65
2022/03/13 02:30:13;;;;;;;;;;;;;;;0.84;74.09;100771.00;4994713;28;20044;-65
2022/03/13 02:33:20;;;;;;;13.18;10.10;;;;;;;0.85;74.14;100772.69;4994549;28;20438;-65
2022/03/13 02:36:24;;;;;;;15.40;10.63;;;;;;;0.83;73.76;100769.25;4994473;28;20053;-65
2022/03/13 02:39:28;;;;;;;17.80;11.13;;;;;;;0.75;74.17;100765.91;4994258;28;20103;-65
2022/03/13 02:42:32;;;;;;;17.23;11.45;;;;;;;0.86;74.08;100756.38;4994115;28;20431;-65
2022/03/13 02:45:37;;;;;;;14.40;10.32;;;;;;;0.96;73.60;100754.56;4994031;28;20507;-65
2022/03/13 02:48:41;;;;;;;13.50;10.75;;;;;;;0.95;72.93;100758.03;4994041;28;20101;-65
2022/03/13 02:51:45;;;;;;;;;;;;;;;0.65;73.81;100755.69;4994829;28;20053;-65
2022/03/13 02:54:48;;;;;;;16.70;10.80;;;;;;;0.53;74.49;100754.94;4993901;28;19971;-65
2022/03/13 02:57:52;;;;;;;14.35;10.20;;;;;;;0.50;74.67;100753.22;4993205;28;20539;-65
2022/03/13 03:00:56;;;;;;;15.48;10.77;;;;;;;0.60;74.34;100765.16;4993912;28;20514;-65
2022/03/13 03:04:01;;;;;;;13.55;10.07;;;;;;;0.67;74.09;100768.53;4993519;28;20045;-65
2022/03/13 03:07:05;;;;;;;13.35;10.15;;;;;;;0.68;73.89;100765.97;4993626;28;20096;-65
2022/03/13 03:10:12;;;;;;;13.75;10.65;;;;;;;0.79;72.58;100753.00;4993568;28;20142;-65
2022/03/13 03:13:16;;;;;;;16.13;10.50;;;;;;;0.75;72.65;100755.63;4993438;28;20108;-65
2022/03/13 03:16:20;;;;;;;15.85;12.38;;;;;;;0.79;72.57;100753.00;4993398;28;20061;-65
2022/03/13 03:19:23;;;;;;;14.10;10.05;;;;;;;0.87;72.50;100752.94;4992913;28;20049;-65
2022/03/13 03:22:27;;;;;;;17.33;10.35;;;;;;;0.58;72.88;100756.63;4993489;28;20101;-65
2022/03/13 03:25:31;;;;;;;16.92;12.65;;;;;;;0.35;74.17;100753.34;4981440;28;20046;-65
2022/03/13 03:28:34;;;;;;;14.80;10.82;;;;;;;0.41;74.44;100750.72;4993470;28;20076;-65
2022/03/13 03:31:45;;;;;;;;;;;;;;;0.51;73.63;100747.25;4993661;28;20053;-65
2022/03/13 03:34:48;;;;;;;18.90;10.57;;;;;;;0.45;73.47;100742.13;4993153;28;19941;-65
2022/03/13 03:37:54;;;;;;;15.10;11.45;;;;;;;0.52;73.15;100743.78;4644551;28;9999890;-65
2022/03/13 03:40:58;;;;;;;24.17;11.55;;;;;;;0.54;73.61;100743.75;4989689;28;20472;-65
2022/03/13 03:44:01;;;;;;;15.35;10.93;;;;;;;0.47;72.94;100751.53;4989651;28;20107;-65
2022/03/13 03:47:04;;;;;;;13.48;10.55;;;;;;;0.32;73.34;100746.50;4989274;28;20142;-65
2022/03/13 03:50:08;;;;;;;;;;;;;;;0.23;73.70;100750.00;4965378;28;20145;-66
2022/03/13 03:53:12;;;;;;;14.90;11.40;;;;;;;0.40;72.94;100741.31;4989369;28;19924;-65
2022/03/13 03:56:15;;;;;;;23.98;9.65;;;;;;;0.41;73.30;100741.28;4989118;28;20053;-65
2022/03/13 03:59:20;;;;;;;18.55;10.43;;;;;;;0.17;73.90;100744.88;4989121;28;20099;-65
2022/03/13 04:02:23;;;;;;;15.50;11.95;;;;;;;0.18;73.69;100748.31;4989033;28;20049;-65
2022/03/13 04:05:26;;;;;;;;;;;;;;;0.33;73.50;100749.94;4989882;28;20108;-65
2022/03/13 04:08:30;;;;;;;14.90;11.15;;;;;;;0.10;74.30;100748.38;4988357;28;20465;-65
2022/03/13 04:11:34;;;;;;;17.95;11.23;;;;;;;0.17;73.92;100747.47;4988830;28;20056;-65
2022/03/13 04:14:38;;;;;;;13.90;11.00;;;;;;;0.21;73.99;100749.13;4988891;28;20053;-65
2022/03/13 04:17:41;;;;;;;17.38;12.10;;;;;;;0.36;73.36;100747.34;4989337;28;20053;-65
2022/03/13 04:20:45;;;;;;;15.23;12.07;;;;;;;0.50;72.64;100755.81;4988999;28;20140;-65
2022/03/13 04:23:49;;;;;;;14.50;10.63;;;;;;;0.41;72.73;100750.72;4988953;28;20066;-65
2022/03/13 04:26:52;;;;;;;14.55;10.70;;;;;;;0.13;73.64;100753.50;4988588;28;20045;-65
2022/03/13 04:29:56;;;;;;;14.90;10.80;;;;;;;0.24;73.39;100750.84;4989052;28;20424;-65
2022/03/13 04:33:01;;;;;;;15.13;10.30;;;;;;;0.31;73.04;100752.50;4989080;28;20570;-65
2022/03/13 04:36:10;;;;;;;15.63;10.30;;;;;;;0.37;72.42;100754.19;4988418;28;20104;-65
2022/03/13 04:39:13;;;;;;;17.60;12.02;;;;;;;0.11;73.29;100750.06;4969770;28;20101;-65
2022/03/13 04:42:17;;;;;;;15.73;10.85;;;;;;;0.12;73.39;100754.34;4969558;28;20121;-65
2022/03/13 04:45:20;;;;;;;;;;;;;;;0.01;73.53;100750.97;4969637;28;20113;-65
2022/03/13 04:48:24;;;;;;;;;;;;;;;-0.09;74.45;100762.19;4969704;28;19967;-65
2022/03/13 04:51:27;;;;;;;10.50;8.10;;;;;;;-0.15;74.64;100751.94;4957506;28;20005;-65
2022/03/13 04:54:31;;;;;;;19.50;10.45;;;;;;;0.04;73.67;100756.09;4969330;28;20053;-65
2022/03/13 04:57:34;;;;;;;16.52;10.95;;;;;;;0.09;73.17;100754.34;4969471;28;20065;-65
2022/03/13 05:00:38;;;;;;;12.48;9.45;;;;;;;0.28;72.57;100755.09;4969089;28;20525;-65
2022/03/13 05:03:41;;;;;;;14.85;10.95;;;;;;;0.09;72.81;100745.78;4968919;28;20053;-65
2022/03/13 05:06:45;;;;;;;14.63;10.90;;;;;;;0.20;72.12;100746.59;4969031;28;20049;-65
2022/03/13 05:09:48;;;;;;;;;;;;;;;0.05;72.50;100749.25;4969836;28;20076;-65
2022/03/13 05:12:51;;;;;;;13.95;10.45;;;;;;;-0.13;73.42;100760.47;4968452;28;19929;-65
2022/03/13 05:15:55;;;;;;;15.20;11.13;;;;;;;0.05;73.42;100756.97;4969049;28;20062;-65
2022/03/13 05:18:58;;;;;;;17.65;12.02;;;;;;;0.19;73.04;100768.00;4969049;28;20066;-65
2022/03/13 05:22:01;;;;;;;16.38;11.32;;;;;;;-0.14;73.58;100761.34;4973016;28;20050;-65
2022/03/13 05:25:05;;;;;;;16.38;12.35;;;;;;;-0.02;73.81;100766.41;4971404;28;20053;-65
2022/03/13 05:28:10;;;;;;;13.95;10.13;;;;;;;-0.08;73.72;100776.72;4973847;28;20049;-65
2022/03/13 05:31:13;;;;;;;15.15;11.10;;;;;;;-0.17;74.01;100774.19;4637212;28;10000902;-65
2022/03/13 05:34:16;;;;;;;16.10;11.63;;;;;;;-0.31;73.41;100769.13;4991634;28;20053;-65
2022/03/13 05:37:20;;;;;;;15.95;11.02;;;;;;;-0.18;73.53;100785.34;4992868;28;20064;-65
2022/03/13 05:40:24;;;;;;;13.70;11.07;;;;;;;-0.34;74.68;100779.41;4995265;28;20057;-65
2022/03/13 05:43:31;;;;;;;22.33;12.25;;;;;;;-0.29;73.70;100781.13;4995349;28;20112;-65
2022/03/13 05:46:34;;;;;;;18.55;10.65;;;;;;;-0.33;73.97;100781.97;4995159;28;20085;-65
2022/03/13 05:49:38;;;;;;;23.75;17.92;;;;;;;-0.21;74.00;100785.34;4994932;28;20050;-65
2022/03/13 05:52:44;;;;;;;22.48;13.30;;;;;;;-0.20;73.78;100787.91;4994967;28;20120;-65
2022/03/13 05:55:47;;;;;;;16.50;10.80;;;;;;;-0.33;74.02;100786.25;4995210;28;20045;-65
2022/03/13 05:58:50;;;;;;;16.67;10.98;;;;;;;-0.29;74.21;100791.38;4995269;28;20065;-65
2022/03/13 06:01:54;;;;;;;18.55;13.57;;;;;;;-0.34;74.20;100800.81;4995033;28;20088;-65
2022/03/13 06:04:58;;;;;;;14.95;10.57;;;;;;;-0.06;73.87;100805.88;4994562;28;20088;-65
2022/03/13 06:08:02;;;;;;;14.82;10.82;;;;;;;-0.25;73.39;100805.09;4994843;28;20100;-65
2022/03/13 06:11:06;;;;;;;14.45;10.18;;;;;;;-0.24;73.42;100812.78;4994867;28;20053;-65
2022/03/13 06:14:09;;;;;;;;;;;;;;;-0.16;73.76;100806.75;4991230;28;20420;-65
2022/03/13 06:17:13;;;;;;;15.55;8.95;;;;;;;-0.26;73.07;100801.63;4994598;28;20009;-64
2022/03/13 06:20:17;;;;;;;;;;;;;;;-0.32;73.82;100809.38;4994843;28;20045;-64
2022/03/13 06:23:20;;;;;;;14.55;11.15;;;;;;;-0.16;73.50;100814.44;4994252;28;19992;-64
2022/03/13 06:26:23;;;;;;;15.65;11.48;;;;;;;-0.11;73.88;100818.72;4994414;28;20209;-64
2022/03/13 06:29:27;;;;;;;16.65;11.00;;;;;;;-0.18;74.13;100814.47;4994696;28;20637;-64
2022/03/13 06:32:31;;;;;;;16.20;10.48;;;;;;;-0.27;74.06;100815.34;4993157;28;20104;-63
2022/03/13 06:35:35;;;;;;;15.00;10.45;;;;;;;-0.16;73.73;100817.03;4994116;28;20530;-63
2022/03/13 06:38:38;;;;;;;18.98;11.68;;;;;;;-0.10;73.63;100814.44;4993400;28;20084;-64
2022/03/13 06:41:42;;;;;;;14.57;10.82;;;;;;;-0.09;73.91;100811.88;4988845;28;20427;-63
2022/03/13 06:44:45;;;;;;;16.52;10.85;;;;;;;-0.04;74.05;100815.25;4987485;28;20089;-64
2022/03/13 06:47:52;;;;;;;15.93;11.60;;;;;;;-0.09;73.50;100822.16;4988915;28;20058;-65
2022/03/13 06:50:56;;;;;;;15.05;11.00;;;;;;;-0.02;73.71;100822.97;4969575;28;20050;-64
2022/03/13 06:54:00;;;;;;;14.32;11.38;;;;;;;0.08;72.51;100819.50;4969992;28;20053;-64
2022/03/13 06:57:04;;;;;;;;;;;;;;;0.44;71.59;100833.88;4971582;28;20046;-64
2022/03/13 07:00:08;;;;;;;;;;;;;;;0.54;71.26;100824.38;4970929;28;20012;-64
2022/03/13 07:03:13;;;;;;;16.15;10.45;;;;;;;0.38;70.96;100817.63;4956111;28;19964;-64
2022/03/13 07:06:16;;;;;;;14.65;10.73;;;;;;;0.54;70.81;100823.53;4988693;28;20041;-65
2022/03/13 07:09:19;;;;;;;14.77;10.73;;;;;;;0.77;70.67;100823.41;4980801;28;20054;-65
2022/03/13 07:12:23;;;;;;;;;;;;;;;0.90;70.27;100827.59;4989866;28;20570;-65
2022/03/13 07:15:28;;;;;;;;;;;;;;;0.95;69.34;100825.81;4989459;28;20013;-64
2022/03/13 07:18:32;;;;;;;17.15;10.77;;;;;;;0.97;68.99;100831.81;4987766;28;19964;-64
2022/03/13 07:21:37;;;;;;;19.73;11.63;;;;;;;1.00;69.79;100824.06;4989020;28;20481;-64
2022/03/13 07:24:41;;;;;;;15.82;9.80;;;;;;;0.97;69.92;100826.66;4988354;28;20050;-65
2022/03/13 07:27:46;;;;;;;13.65;10.02;;;;;;;1.10;69.41;100828.25;4988520;28;20097;-64
2022/03/13 07:30:49;;;;;;;15.52;11.02;;;;;;;1.32;68.89;100825.50;4987477;28;20053;-65
2022/03/13 07:33:53;;;;;;;20.60;13.38;;;;;;;1.26;69.28;100822.97;4989122;28;20088;-64
2022/03/13 07:36:56;;;;;;;20.75;14.82;;;;;;;1.39;69.03;100816.84;4989158;28;20518;-64
2022/03/13 07:40:01;;;;;;;21.92;13.95;;;;;;;1.60;67.78;100831.25;4989099;28;20057;-64
2022/03/13 07:43:05;;;;;;;13.57;10.80;;;;;;;1.48;68.58;100824.47;4987857;28;20043;-64
2022/03/13 07:46:08;;;;;;;16.40;11.10;;;;;;;1.65;67.63;100823.44;4979302;28;20097;-65
2022/03/13 07:49:11;;;;;;;;;;;;;;;1.59;67.47;100820.06;4985204;28;20056;-64
2022/03/13 07:52:15;;;;;;;15.73;10.32;;;;;;;1.69;66.92;100812.22;4988431;28;19921;-64
2022/03/13 07:55:19;;;;;;;15.40;11.13;;;;;;;1.90;66.47;100824.88;4987686;28;20409;-64
2022/03/13 07:58:23;;;;;;;16.08;11.50;;;;;;;2.13;65.79;100821.16;4987606;28;20048;-64
2022/03/13 08:01:26;;;;;;;17.02;11.05;;;;;;;2.31;64.27;100820.91;4986244;28;20411;-65
2022/03/13 08:04:30;;;;;;;;;;;;;;;2.33;64.78;100824.34;4968216;28;20053;-65
2022/03/13 08:07:34;;;;;;;14.35;10.50;;;;;;;2.36;66.23;100826.84;4982039;28;20021;-65
2022/03/13 08:10:37;;;;;;;17.02;10.88;;;;;;;2.33;66.27;100822.63;4985510;28;20101;-64
2022/03/13 08:13:40;;;;;;;18.45;10.20;;;;;;;2.41;67.45;100819.91;4988367;28;20053;-64
2022/03/13 08:16:44;;;;;;;;;;;;;;;2.65;66.72;100810.97;4969060;28;20141;-64
2022/03/13 08:19:47;;;;;;;13.50;8.85;;;;;;;2.61;67.22;100823.94;4987725;28;20387;-65
2022/03/13 08:22:50;;;;;;;14.15;10.50;;;;;;;2.76;66.82;100810.78;4987497;28;20180;-66
2022/03/13 08:25:54;;;;;;;15.48;10.60;;;;;;;2.90;66.26;100810.56;4988083;28;20057;-65
2022/03/13 08:28:57;;;;;;;;;;;;;;;3.09;65.66;100800.78;4989148;28;20388;-64
2022/03/13 08:32:01;;;;;;;14.48;10.32;;;;;;;3.29;64.82;100797.84;4988186;28;19948;-65
2022/03/13 08:35:08;;;;;;;14.88;10.52;;;;;;;3.42;63.46;100789.88;4987088;28;20127;-64
2022/03/13 08:38:11;;;;;;;14.40;10.65;;;;;;;3.44;63.89;100787.22;4986773;28;20514;-65
2022/03/13 08:41:15;;;;;;;;;;;;;;;3.58;60.99;100787.00;4988900;28;20049;-65
2022/03/13 08:44:19;;;;;;;15.40;9.98;;;;;;;3.76;58.67;100786.59;4980701;28;19983;-64
2022/03/13 08:47:22;;;;;;;;;;;;;;;3.91;57.43;100788.03;4975732;28;20048;-64
2022/03/13 08:50:27;;;;;;;15.57;10.20;;;;;;;4.10;56.52;100781.59;4984777;28;20643;-65
2022/03/13 08:54:41;;;;;;;;;;;;;;;4.21;54.52;100783.94;4988235;28;20527;-65
2022/03/13 08:57:28;;;;;;;13.82;9.38;;;;;;;4.32;53.92;100778.53;4985281;28;19933;-66
2022/03/13 09:00:36;;;;;;;13.82;9.60;;;;;;;4.48;53.71;100785.06;4991247;28;20093;-65
2022/03/13 09:03:40;;;;;;;13.60;9.52;;;;;;;4.64;53.01;100782.97;4991587;28;20044;-66
2022/03/13 09:06:43;;;;;;;13.82;9.63;;;;;;;4.79;52.31;100785.22;4992081;28;20044;-64
2022/03/13 09:09:46;;;;;;;12.52;9.15;;;;;;;4.89;50.40;100773.72;4991568;28;20526;-64
2022/03/13 09:12:50;;;;;;;15.25;9.25;;;;;;;4.99;50.25;100770.91;4975237;28;20416;-65
2022/03/13 09:16:40;;;;;;;11.02;8.02;;;;;;;5.14;49.48;100765.34;4971784;28;20054;-65
2022/03/13 09:19:44;;;;;;;11.88;8.80;;;;;;;5.29;48.97;100764.91;4971527;28;20049;-65
2022/03/13 09:22:48;;;;;;;14.20;9.60;;;;;;;5.40;48.45;100766.38;4984613;28;20065;-65
2022/03/13 09:25:52;;;;;;;13.27;8.10;;;;;;;5.45;47.21;100761.91;4990372;28;20116;-65
2022/03/13 09:28:55;;;;;;;12.10;8.57;;;;;;;5.67;48.27;100757.81;4990785;28;20133;-65
2022/03/13 09:31:59;;;;;;;;;;;;;;;5.72;46.58;100748.19;4991602;28;20045;-66
2022/03/13 09:35:04;;;;;;;12.80;8.02;;;;;;;5.95;47.97;100751.88;4991463;28;19972;-65
2022/03/13 09:38:07;;;;;;;11.80;8.50;;;;;;;6.10;47.99;100754.03;4991370;28;20038;-65
2022/03/13 09:41:12;;;;;;;;;;;;;;;6.13;47.05;100759.13;4991198;28;20105;-65
2022/03/13 09:44:16;;;;;;;11.02;8.75;;;;;;;6.22;45.67;100764.06;4990627;28;20017;-64
2022/03/13 09:47:20;;;;;;;10.27;7.78;;;;;;;6.42;44.96;100757.38;4990432;28;20062;-65
2022/03/13 09:50:24;;;;;;;12.50;8.20;;;;;;;6.60;45.25;100756.78;4990124;28;20084;-65
2022/03/13 09:53:27;;;;;;;;;;;;;;;6.78;44.24;100752.75;4989829;28;20141;-65
2022/03/13 09:56:33;;;;;;;10.52;8.13;;;;;;;6.84;43.80;100751.69;4989762;28;19925;-65
2022/03/13 09:59:36;;;;;;;13.50;8.57;;;;;;;7.00;42.57;100745.09;4991775;28;20119;-65
2022/03/13 10:02:40;;;;;;;13.52;7.55;;;;;;;7.03;42.68;100738.94;4978973;28;20796;-65
2022/03/13 10:05:45;;;;;;;11.25;7.70;;;;;;;7.23;42.38;100736.47;4984090;28;20048;-65
2022/03/13 10:08:48;;;;;;;13.98;8.38;;;;;;;7.23;42.35;100732.13;4990242;28;20075;-65
2022/03/13 10:12:02;;;;;;;;;;;;;;;7.39;41.12;100727.22;4985004;28;20104;-65
2022/03/13 10:15:07;;;;;;;11.85;8.13;;;;;;;7.47;41.97;100726.97;4991388;28;20470;-65
2022/03/13 10:18:11;;;;;;;14.43;8.43;;;;;;;7.68;41.43;100725.31;4991134;28;20049;-65
2022/03/13 10:21:19;;;;;;;11.23;7.22;;;;;;;7.57;41.80;100719.69;4988173;28;20069;-65
2022/03/13 10:24:24;;;;;;;19.02;8.27;;;;;;;7.83;41.78;100714.34;4975704;28;20105;-65
2022/03/13 10:27:28;;;;;;;12.50;8.07;;;;;;;7.89;42.36;100705.47;4972518;28;20459;-65
2022/03/13 10:30:32;;;;;;;19.50;8.75;;;;;;;8.32;40.61;100703.75;4972062;28;20500;-65
2022/03/13 10:33:54;;;;;;;14.88;8.98;;;;;;;8.40;40.85;100704.34;4971815;28;20133;-65
2022/03/13 10:36:58;;;;;;;12.43;8.30;;;;;;;8.45;40.79;100697.19;4972142;28;20113;-65
2022/03/13 10:40:24;;;;;;;;;;;;;;;8.56;41.03;100695.00;4972709;28;20054;-65
2022/03/13 10:43:35;;;;;;;13.13;8.70;;;;;;;8.70;39.68;100693.56;4971515;28;19964;-65
2022/03/13 10:46:40;;;;;;;12.40;7.63;;;;;;;8.70;40.22;100697.00;4970939;28;20130;-65
2022/03/13 10:49:45;;;;;;;13.43;7.80;;;;;;;8.69;40.68;100694.50;4971421;28;20049;-65
2022/03/13 10:52:48;;;;;;;11.60;8.60;;;;;;;8.70;39.71;100701.38;4970578;28;20092;-66
2022/03/13 10:56:02;;;;;;;10.43;7.88;;;;;;;8.81;38.43;100688.75;4970789;28;20412;-65
2022/03/13 10:59:17;;;;;;;11.48;8.13;;;;;;;8.89;39.48;100681.44;4971008;28;20069;-68
2022/03/13 11:02:24;;;;;;;10.23;7.65;;;;;;;9.36;37.98;100675.91;4970825;28;20050;-65
2022/03/13 11:05:28;;;;;;;9.68;7.65;;;;;;;9.75;38.48;100678.47;4969804;28;20144;-65
2022/03/13 11:08:31;;;;;;;13.13;8.18;;;;;;;9.62;39.23;100672.13;4969718;28;20049;-65
2022/03/13 11:11:35;;;;;;;18.38;10.15;;;;;;;9.87;39.14;100666.63;4968579;28;20108;-65
2022/03/13 11:14:39;;;;;;;13.35;7.95;;;;;;;10.02;36.79;100665.91;4971507;28;20052;-65
2022/03/13 11:17:43;;;;;;;16.88;7.93;;;;;;;9.84;37.33;100660.69;4970636;28;20757;-65
2022/03/13 11:20:47;;;;;;;10.88;7.60;;;;;;;9.95;37.08;100659.25;4970678;28;20069;-65
2022/03/13 11:23:50;;;;;;;;;;;;;;;10.18;37.09;100644.25;4971053;28;20053;-66
2022/03/13 11:26:54;;;;;;;13.02;7.90;;;;;;;10.33;35.55;100642.69;4971197;28;19973;-65
2022/03/13 11:29:58;;;;;;;11.88;8.80;;;;;;;10.68;34.90;100638.28;4971383;28;20073;-65
2022/03/13 11:33:02;;;;;;;9.18;7.18;;;;;;;10.85;34.27;100635.69;4971026;28;20073;-65
2022/03/13 11:36:25;;;;;;;11.60;8.05;;;;;;;10.89;34.34;100629.34;4970249;28;20085;-65
2022/03/13 11:39:31;;;;;;;10.80;8.25;;;;;;;10.82;35.50;100621.91;4968532;28;20150;-64
2022/03/13 11:42:47;;;;;;;11.60;7.57;;;;;;;11.01;34.14;100613.91;4969335;28;20053;-65
2022/03/13 11:45:57;;;;;;;12.40;8.82;;;;;;;11.13;33.99;100610.66;4968661;28;20069;-65
2022/03/13 11:49:17;;;;;;;12.02;8.18;;;;;;;11.32;34.21;100608.75;4982812;28;20061;-65
2022/03/13 11:52:25;;;;;;;11.13;8.65;;;;;;;11.34;34.03;100606.91;4970146;28;20094;-65
2022/03/13 11:55:30;;;;;;;11.55;7.85;;;;;;;11.63;34.36;100607.94;4969726;28;20058;-65
2022/03/13 11:58:47;;;;;;;14.10;8.48;;;;;;;11.60;32.92;100602.00;4969930;28;20081;-65
2022/03/13 12:01:52;;;;;;;12.85;8.80;;;;;;;11.68;32.84;100599.81;4970302;28;20170;-65
2022/03/13 12:05:33;;;;;;;15.20;8.45;;;;;;;11.69;32.43;100592.81;4969381;28;20125;-65
2022/03/13 12:09:26;;;;;;;10.90;8.05;;;;;;;11.79;33.06;100586.97;4969213;28;20059;-65
2022/03/13 12:12:29;;;;;;;13.68;7.55;;;;;;;11.88;33.39;100595.28;4970173;28;20551;-65
2022/03/13 12:15:33;;;;;;;11.65;8.45;;;;;;;12.07;33.00;100588.06;4970013;28;20049;-66
2022/03/13 12:18:37;;;;;;;17.92;9.52;;;;;;;12.26;32.44;100582.59;4969537;28;20081;-65
2022/03/13 12:21:47;;;;;;;15.13;9.35;;;;;;;12.44;32.75;100567.53;4969367;28;20066;-65
2022/03/13 12:24:59;;;;;;;12.73;8.52;;;;;;;12.87;31.21;100564.97;4969001;28;20045;-65
2022/03/13 12:28:05;;;;;;;15.35;9.85;;;;;;;12.97;30.75;100556.44;4968731;28;20053;-65
2022/03/13 12:31:08;;;;;;;12.35;8.40;;;;;;;13.25;30.85;100554.75;4968821;28;20418;-65
2022/03/13 12:34:13;;;;;;;15.50;9.00;;;;;;;13.61;30.68;100542.84;4968962;28;20070;-66
2022/03/13 12:37:16;;;;;;;11.88;9.02;;;;;;;13.76;29.33;100546.25;4969299;28;20515;-65
2022/03/13 12:40:23;;;;;;;13.82;8.82;;;;;;;14.16;28.66;100542.66;4969518;28;20054;-65
2022/03/13 12:43:46;;;;;;;21.35;9.90;;;;;;;14.52;28.60;100538.53;4969961;28;20215;-65
2022/03/13 12:46:52;;;;;;;12.70;9.68;;;;;;;14.70;28.40;100523.25;4968414;28;20117;-65
2022/03/13 12:49:59;;;;;;;14.30;9.73;;;;;;;14.88;28.51;100511.44;4969506;28;20468;-66
2022/03/13 12:53:03;;;;;;;13.43;9.60;;;;;;;15.26;28.01;100525.47;4969360;28;20472;-66
2022/03/13 12:56:07;;;;;;;12.70;8.38;;;;;;;15.35;28.60;100522.19;4964747;28;20583;-66
2022/03/13 12:59:41;;;;;;;15.68;9.85;;;;;;;15.49;26.85;100511.47;4969716;28;20045;-65
2022/03/13 13:02:57;;;;;;;13.55;9.13;;;;;;;15.88;27.20;100501.59;4969233;28;20562;-65
2022/03/13 13:06:02;;;;;;;16.95;9.93;;;;;;;16.22;26.16;100506.97;4968631;28;20102;-65
2022/03/13 13:09:05;;;;;;;13.50;9.32;;;;;;;16.42;27.01;100502.81;4959682;28;20417;-65
2022/03/13 13:12:17;;;;;;;12.25;8.77;;;;;;;17.06;25.58;100503.06;4968459;28;20087;-65
2022/03/13 13:15:22;;;;;;;14.13;10.30;;;;;;;17.51;24.80;100499.47;4959829;28;20142;-65
2022/03/13 13:18:26;;;;;;;11.50;9.25;;;;;;;18.59;23.28;100489.50;4966688;28;20423;-65
2022/03/13 13:21:40;;;;;;;16.10;9.75;;;;;;;19.71;21.87;100483.09;4976256;28;20056;-66
2022/03/13 13:25:01;;;;;;;15.05;11.55;;;;;;;21.26;19.34;100470.31;4988855;28;20053;-66
2022/03/13 13:28:11;;;;;;;14.73;11.75;;;;;;;24.51;17.21;100465.59;4949410;29;20126;-67
2022/03/13 13:31:15;;;;;;;16.05;10.52;;;;;;;26.86;15.55;100453.16;4968661;28;20247;-67
2022/03/13 13:34:24;;;;;;;13.02;11.23;;;;;;;28.30;13.63;100439.59;4956590;28;20105;-66
2022/03/13 13:37:28;;;;;;;16.50;10.20;;;;;;;27.75;13.73;100446.63;4969128;28;20571;-66
2022/03/13 13:40:40;;;;;;;13.18;10.07;;;;;;;27.85;13.69;100444.47;4969692;28;20062;-66
2022/03/13 13:43:44;;;;;;;;;;;;;;;27.80;13.70;100446.94;4973220;28;20049;-67
2022/03/13 13:47:03;;;;;;;15.25;11.30;;;;;;;27.23;14.11;100439.78;4980202;28;20410;-67
2022/03/13 13:50:18;;;;;;;12.68;10.70;;;;;;;29.44;12.76;100433.63;4991923;28;20112;-67
2022/03/13 13:53:21;;;;;;;14.27;11.10;;;;;;;26.77;14.37;100440.03;4991690;28;20057;-67
2022/03/13 13:56:32;;;;;;;14.45;11.50;;;;;;;29.38;12.63;100429.88;4991488;28;20049;-68
2022/03/13 13:59:42;;;;;;;13.47;12.13;;;;;;;24.42;16.07;100437.22;4618334;28;9999846;-67
2022/03/13 14:02:50;;;;;;;11.93;10.68;;;;;;;28.11;13.76;100432.25;4973881;28;20552;-68
2022/03/13 14:05:54;;;;;;;11.65;10.35;;;;;;;28.97;13.08;100430.84;4989227;28;20041;-69
2022/03/13 14:08:57;;;;;;;14.75;10.00;;;;;;;29.42;12.64;100412.28;4988976;28;20058;-67
2022/03/13 14:12:01;;;;;;;14.15;9.48;;;;;;;28.95;14.07;100416.75;4988276;28;20484;-67
2022/03/13 14:15:05;;;;;;;9.50;8.55;;;;;;;26.27;15.94;100423.69;4984493;28;20057;-67
2022/03/13 14:18:08;;;;;;;10.65;9.32;;;;;;;25.11;16.97;100422.19;4976480;28;20104;-66
2022/03/13 14:21:14;;;;;;;11.02;9.15;;;;;;;25.56;17.00;100425.88;4971285;28;20152;-66
2022/03/13 14:24:18;;;;;;;9.23;8.32;;;;;;;23.05;19.63;100421.91;4968882;28;20101;-67
2022/03/13 14:27:21;;;;;;;64.82;54.50;;;;;;;21.17;22.19;100426.81;4960882;28;20038;-66